sensor_id;sensor_type;location;lat;lon;timestamp;pressure;altitude;pressure_sealevel;temperature;humidity
48778;BME280;34578;0.000;0.000;2023-03-23T00:02:14;96143.34;;;17.34;53.14
48778;BME280;34578;0.000;0.000;2023-03-23T00:07:14;96140.81;;;17.32;52.78
48778;BME280;34578;0.000;0.000;2023-03-23T00:12:27;96126.50;;;17.33;52.58
48778;BME280;34578;0.000;0.000;2023-03-23T00:17:34;96130.72;;;17.32;52.78
48778;BME280;34578;0.000;0.000;2023-03-23T00:22:34;96124.81;;;17.32;52.81
48778;BME280;34578;0.000;0.000;2023-03-23T00:27:37;96122.28;;;17.38;57.88
48778;BME280;34578;0.000;0.000;2023-03-23T00:32:38;96129.84;;;17.44;59.93
48778;BME280;34578;0.000;0.000;2023-03-23T00:37:38;96125.59;;;17.46;60.02
48778;BME280;34578;0.000;0.000;2023-03-23T00:42:39;96124.81;;;17.41;56.88
48778;BME280;34578;0.000;0.000;2023-03-23T00:47:39;96120.59;;;17.38;54.18
48778;BME280;34578;0.000;0.000;2023-03-23T00:52:41;96107.13;;;17.36;53.59
48778;BME280;34578;0.000;0.000;2023-03-23T00:57:44;96107.94;;;17.34;53.40
48778;BME280;34578;0.000;0.000;2023-03-23T01:02:44;96109.66;;;17.36;53.13
48778;BME280;34578;0.000;0.000;2023-03-23T01:07:45;96091.09;;;17.36;53.20
48778;BME280;34578;0.000;0.000;2023-03-23T01:12:45;96088.56;;;17.31;53.05
48778;BME280;34578;0.000;0.000;2023-03-23T01:17:46;96091.09;;;17.36;52.84
48778;BME280;34578;0.000;0.000;2023-03-23T01:22:47;96087.69;;;17.34;52.57
48778;BME280;34578;0.000;0.000;2023-03-23T01:27:47;96080.94;;;17.34;53.03
48778;BME280;34578;0.000;0.000;2023-03-23T01:32:47;96057.38;;;17.31;52.68
48778;BME280;34578;0.000;0.000;2023-03-23T01:37:48;96053.97;;;17.35;54.75
48778;BME280;34578;0.000;0.000;2023-03-23T01:42:49;96061.50;;;17.42;59.84
48778;BME280;34578;0.000;0.000;2023-03-23T01:53:09;96041.28;;;17.44;58.22
48778;BME280;34578;0.000;0.000;2023-03-23T01:58:11;96037.09;;;17.32;54.61
48778;BME280;34578;0.000;0.000;2023-03-23T02:03:12;96015.19;;;17.36;53.90
48778;BME280;34578;0.000;0.000;2023-03-23T02:08:14;96016.88;;;17.34;53.32
48778;BME280;34578;0.000;0.000;2023-03-23T02:13:17;96016.00;;;17.33;53.42
48778;BME280;34578;0.000;0.000;2023-03-23T02:18:37;96016.91;;;17.31;53.22
48778;BME280;34578;0.000;0.000;2023-03-23T02:28:55;96002.53;;;17.31;52.92
48778;BME280;34578;0.000;0.000;2023-03-23T02:39:23;96005.94;;;17.27;52.66
48778;BME280;34578;0.000;0.000;2023-03-23T02:44:27;96007.63;;;17.28;52.70
48778;BME280;34578;0.000;0.000;2023-03-23T02:49:32;95999.19;;;17.31;57.21
48778;BME280;34578;0.000;0.000;2023-03-23T02:54:35;95982.25;;;17.42;59.99
48778;BME280;34578;0.000;0.000;2023-03-23T02:59:37;95983.06;;;17.44;59.99
48778;BME280;34578;0.000;0.000;2023-03-23T03:04:40;95974.66;;;17.39;56.25
48778;BME280;34578;0.000;0.000;2023-03-23T03:09:50;95969.66;;;17.36;53.81
48778;BME280;34578;0.000;0.000;2023-03-23T03:15:06;95978.91;;;17.34;53.43
48778;BME280;34578;0.000;0.000;2023-03-23T03:20:10;95982.28;;;17.33;53.08
48778;BME280;34578;0.000;0.000;2023-03-23T03:25:12;95972.19;;;17.33;53.12
48778;BME280;34578;0.000;0.000;2023-03-23T03:30:17;95969.66;;;17.30;53.28
48778;BME280;34578;0.000;0.000;2023-03-23T03:35:24;95962.91;;;17.29;53.00
48778;BME280;34578;0.000;0.000;2023-03-23T03:40:24;95969.66;;;17.30;52.97
48778;BME280;34578;0.000;0.000;2023-03-23T03:45:25;95969.66;;;17.31;52.90
48778;BME280;34578;0.000;0.000;2023-03-23T03:50:25;95969.69;;;17.28;52.19
48778;BME280;34578;0.000;0.000;2023-03-23T03:55:26;95974.72;;;17.30;52.71
48778;BME280;34578;0.000;0.000;2023-03-23T04:00:28;95971.31;;;17.34;56.69
48778;BME280;34578;0.000;0.000;2023-03-23T04:05:28;95949.38;;;17.40;59.55
48778;BME280;34578;0.000;0.000;2023-03-23T04:10:30;95955.25;;;17.44;59.45
48778;BME280;34578;0.000;0.000;2023-03-23T04:15:30;95957.81;;;17.39;57.80
48778;BME280;34578;0.000;0.000;2023-03-23T04:20:31;95961.19;;;17.34;54.68
48778;BME280;34578;0.000;0.000;2023-03-23T04:25:32;95959.53;;;17.30;53.77
48778;BME280;34578;0.000;0.000;2023-03-23T04:30:33;95957.91;;;17.23;53.28
48778;BME280;34578;0.000;0.000;2023-03-23T04:35:43;95980.63;;;17.30;53.38
48778;BME280;34578;0.000;0.000;2023-03-23T04:41:04;95988.22;;;17.29;53.24
48778;BME280;34578;0.000;0.000;2023-03-23T04:46:20;96003.38;;;17.29;53.07
48778;BME280;34578;0.000;0.000;2023-03-23T04:51:24;95996.66;;;17.31;52.71
48778;BME280;34578;0.000;0.000;2023-03-23T04:56:27;96005.03;;;17.34;52.87
48778;BME280;34578;0.000;0.000;2023-03-23T05:01:29;96000.84;;;17.36;52.29
48778;BME280;34578;0.000;0.000;2023-03-23T05:06:44;96006.75;;;17.37;53.61
48778;BME280;34578;0.000;0.000;2023-03-23T05:11:52;96015.19;;;17.36;54.02
48778;BME280;34578;0.000;0.000;2023-03-23T05:16:53;96024.41;;;17.43;56.06
48778;BME280;34578;0.000;0.000;2023-03-23T05:21:57;96019.34;;;17.43;59.07
48778;BME280;34578;0.000;0.000;2023-03-23T05:27:04;96017.69;;;17.42;57.58
48778;BME280;34578;0.000;0.000;2023-03-23T05:32:09;96011.75;;;17.43;58.66
48778;BME280;34578;0.000;0.000;2023-03-23T05:37:12;96014.25;;;17.46;58.68
48778;BME280;34578;0.000;0.000;2023-03-23T05:42:29;96021.03;;;17.45;57.09
48778;BME280;34578;0.000;0.000;2023-03-23T05:47:39;96034.53;;;17.44;54.89
48778;BME280;34578;0.000;0.000;2023-03-23T05:52:44;96025.28;;;17.39;53.37
48778;BME280;34578;0.000;0.000;2023-03-23T05:57:46;96052.22;;;17.46;54.09
48778;BME280;34578;0.000;0.000;2023-03-23T06:03:00;96057.31;;;17.44;55.09
48778;BME280;34578;0.000;0.000;2023-03-23T06:08:11;96060.66;;;17.48;54.65
48778;BME280;34578;0.000;0.000;2023-03-23T06:13:12;96071.59;;;17.50;56.98
48778;BME280;34578;0.000;0.000;2023-03-23T06:18:21;96082.56;;;17.52;58.00
48778;BME280;34578;0.000;0.000;2023-03-23T06:23:41;96102.81;;;17.52;56.76
48778;BME280;34578;0.000;0.000;2023-03-23T06:28:44;96092.66;;;17.56;60.18
48778;BME280;34578;0.000;0.000;2023-03-23T06:33:45;96085.91;;;17.57;59.63
48778;BME280;34578;0.000;0.000;2023-03-23T06:39:14;96090.97;;;17.57;58.75
48778;BME280;34578;0.000;0.000;2023-03-23T06:44:27;96084.22;;;17.53;59.46
48778;BME280;34578;0.000;0.000;2023-03-23T06:49:28;96081.69;;;17.54;59.19
48778;BME280;34578;0.000;0.000;2023-03-23T06:54:50;96077.50;;;17.50;58.36
48778;BME280;34578;0.000;0.000;2023-03-23T06:59:52;96074.16;;;17.44;58.48
48778;BME280;34578;0.000;0.000;2023-03-23T07:04:55;96093.50;;;17.54;55.47
48778;BME280;34578;0.000;0.000;2023-03-23T07:09:58;96107.00;;;17.53;56.21
48778;BME280;34578;0.000;0.000;2023-03-23T07:14:59;96116.31;;;17.51;59.39
48778;BME280;34578;0.000;0.000;2023-03-23T07:19:59;96107.88;;;17.52;58.63
48778;BME280;34578;0.000;0.000;2023-03-23T07:25:00;96106.19;;;17.51;58.35
48778;BME280;34578;0.000;0.000;2023-03-23T07:30:09;96116.31;;;17.51;58.94
48778;BME280;34578;0.000;0.000;2023-03-23T07:35:10;96120.53;;;17.53;59.60
48778;BME280;34578;0.000;0.000;2023-03-23T07:40:22;96143.25;;;17.62;58.41
48778;BME280;34578;0.000;0.000;2023-03-23T07:45:25;96155.03;;;17.63;55.27
48778;BME280;34578;0.000;0.000;2023-03-23T07:50:27;96151.66;;;17.63;53.86
48778;BME280;34578;0.000;0.000;2023-03-23T07:55:29;96164.31;;;17.63;53.80
48778;BME280;34578;0.000;0.000;2023-03-23T08:00:54;96163.50;;;17.61;53.35
48778;BME280;34578;0.000;0.000;2023-03-23T08:05:58;96166.03;;;17.61;53.30
48778;BME280;34578;0.000;0.000;2023-03-23T08:11:18;96178.69;;;17.61;53.28
48778;BME280;34578;0.000;0.000;2023-03-23T08:16:37;96187.97;;;17.59;53.14
48778;BME280;34578;0.000;0.000;2023-03-23T08:21:49;96193.84;;;17.61;53.21
48778;BME280;34578;0.000;0.000;2023-03-23T08:27:00;96197.25;;;17.60;52.92
48778;BME280;34578;0.000;0.000;2023-03-23T08:32:39;96187.13;;;17.60;53.00
48778;BME280;34578;0.000;0.000;2023-03-23T08:38:00;96190.50;;;17.59;52.67
48778;BME280;34578;0.000;0.000;2023-03-23T08:43:20;96187.13;;;17.60;52.57
48778;BME280;34578;0.000;0.000;2023-03-23T08:48:39;96183.69;;;17.73;57.30
48778;BME280;34578;0.000;0.000;2023-03-23T08:53:54;96194.63;;;17.75;59.54
48778;BME280;34578;0.000;0.000;2023-03-23T08:59:21;96190.47;;;17.69;53.41
48778;BME280;34578;0.000;0.000;2023-03-23T09:04:34;96195.53;;;17.65;53.27
48778;BME280;34578;0.000;0.000;2023-03-23T09:09:52;96197.22;;;17.63;53.10
48778;BME280;34578;0.000;0.000;2023-03-23T09:14:53;96202.28;;;17.63;52.96
48778;BME280;34578;0.000;0.000;2023-03-23T09:19:53;96206.53;;;17.62;52.84
48778;BME280;34578;0.000;0.000;2023-03-23T09:24:54;96221.69;;;17.64;52.71
48778;BME280;34578;0.000;0.000;2023-03-23T09:29:55;96207.34;;;17.63;52.95
48778;BME280;34578;0.000;0.000;2023-03-23T09:34:55;96215.78;;;17.63;53.22
48778;BME280;34578;0.000;0.000;2023-03-23T09:39:56;96198.06;;;17.63;52.65
48778;BME280;34578;0.000;0.000;2023-03-23T09:45:36;96182.03;;;17.63;52.45
48778;BME280;34578;0.000;0.000;2023-03-23T09:50:41;96187.94;;;17.63;52.31
48778;BME280;34578;0.000;0.000;2023-03-23T09:55:43;96194.69;;;17.64;53.88
48778;BME280;34578;0.000;0.000;2023-03-23T10:00:59;96204.75;;;17.76;58.04
48778;BME280;34578;0.000;0.000;2023-03-23T10:06:00;96204.75;;;17.79;53.94
48778;BME280;34578;0.000;0.000;2023-03-23T10:11:18;96193.81;;;17.71;52.69
48778;BME280;34578;0.000;0.000;2023-03-23T10:16:25;96193.81;;;17.70;52.52
48778;BME280;34578;0.000;0.000;2023-03-23T10:21:28;96193.84;;;17.67;52.55
48778;BME280;34578;0.000;0.000;2023-03-23T10:31:57;96192.97;;;17.68;52.49
48778;BME280;34578;0.000;0.000;2023-03-23T10:42:05;96183.69;;;17.70;52.80
48778;BME280;34578;0.000;0.000;2023-03-23T10:47:08;96178.63;;;17.68;52.46
48778;BME280;34578;0.000;0.000;2023-03-23T10:52:37;96189.59;;;17.70;52.44
48778;BME280;34578;0.000;0.000;2023-03-23T10:57:41;96164.31;;;17.66;52.30
48778;BME280;34578;0.000;0.000;2023-03-23T11:02:46;96182.88;;;17.69;52.18
48778;BME280;34578;0.000;0.000;2023-03-23T11:07:52;96187.84;;;17.80;57.20
48778;BME280;34578;0.000;0.000;2023-03-23T11:12:57;96186.97;;;17.87;56.63
48778;BME280;34578;0.000;0.000;2023-03-23T11:18:01;96176.88;;;17.79;53.89
48778;BME280;34578;0.000;0.000;2023-03-23T11:23:09;96171.81;;;17.78;52.92
48778;BME280;34578;0.000;0.000;2023-03-23T11:28:11;96173.53;;;17.76;52.92
48778;BME280;34578;0.000;0.000;2023-03-23T11:33:13;96176.09;;;17.70;52.76
48778;BME280;34578;0.000;0.000;2023-03-23T11:38:21;96175.25;;;17.72;52.40
48778;BME280;34578;0.000;0.000;2023-03-23T11:43:24;96171.84;;;17.72;52.37
48778;BME280;34578;0.000;0.000;2023-03-23T11:53:39;96179.41;;;17.76;52.75
48778;BME280;34578;0.000;0.000;2023-03-23T11:58:43;96176.06;;;17.77;52.77
48778;BME280;34578;0.000;0.000;2023-03-23T12:03:57;96180.25;;;17.80;53.26
48778;BME280;34578;0.000;0.000;2023-03-23T12:09:10;96179.41;;;17.79;52.99
48778;BME280;34578;0.000;0.000;2023-03-23T12:30:36;96146.47;;;17.81;52.69
48778;BME280;34578;0.000;0.000;2023-03-23T12:40:55;96131.34;;;17.72;52.77
48778;BME280;34578;0.000;0.000;2023-03-23T12:46:25;96142.25;;;17.81;52.65
48778;BME280;34578;0.000;0.000;2023-03-23T12:51:50;96151.53;;;17.81;52.29
48778;BME280;34578;0.000;0.000;2023-03-23T12:56:59;96153.25;;;17.79;52.32
48778;BME280;34578;0.000;0.000;2023-03-23T13:07:12;96153.28;;;17.77;52.51
48778;BME280;34578;0.000;0.000;2023-03-23T13:12:14;96148.22;;;17.76;52.39
48778;BME280;34578;0.000;0.000;2023-03-23T13:22:41;96147.41;;;17.74;52.11
48778;BME280;34578;0.000;0.000;2023-03-23T13:27:43;96139.66;;;17.89;54.92
48778;BME280;34578;0.000;0.000;2023-03-23T13:32:44;96135.44;;;17.92;55.35
48778;BME280;34578;0.000;0.000;2023-03-23T13:37:47;96147.31;;;17.86;52.69
48778;BME280;34578;0.000;0.000;2023-03-23T13:42:51;96149.84;;;17.80;52.16
48778;BME280;34578;0.000;0.000;2023-03-23T13:53:13;96131.38;;;17.69;52.27
48778;BME280;34578;0.000;0.000;2023-03-23T13:58:24;96139.78;;;17.71;51.96
48778;BME280;34578;0.000;0.000;2023-03-23T14:13:50;96117.03;;;17.69;51.95
48778;BME280;34578;0.000;0.000;2023-03-23T14:18:54;96109.41;;;17.74;51.67
48778;BME280;34578;0.000;0.000;2023-03-23T14:23:55;96110.25;;;17.74;51.74
48778;BME280;34578;0.000;0.000;2023-03-23T14:28:56;96107.72;;;17.76;51.94
48778;BME280;34578;0.000;0.000;2023-03-23T14:34:02;96102.59;;;17.82;54.99
48778;BME280;34578;0.000;0.000;2023-03-23T14:39:24;96099.94;;;17.97;56.42
48778;BME280;34578;0.000;0.000;2023-03-23T14:44:28;96092.34;;;17.97;54.42
48778;BME280;34578;0.000;0.000;2023-03-23T14:49:33;96084.03;;;17.83;51.92
48778;BME280;34578;0.000;0.000;2023-03-23T14:54:35;96067.16;;;17.79;51.69
48778;BME280;34578;0.000;0.000;2023-03-23T14:59:40;96066.34;;;17.77;51.93
48778;BME280;34578;0.000;0.000;2023-03-23T15:04:42;96069.72;;;17.74;51.59
48778;BME280;34578;0.000;0.000;2023-03-23T15:09:45;96068.94;;;17.66;52.20
48778;BME280;34578;0.000;0.000;2023-03-23T15:14:50;96059.69;;;17.67;51.27
48778;BME280;34578;0.000;0.000;2023-03-23T15:19:52;96072.31;;;17.68;51.07
48778;BME280;34578;0.000;0.000;2023-03-23T15:25:09;96063.03;;;17.70;51.16
48778;BME280;34578;0.000;0.000;2023-03-23T15:30:19;96052.06;;;17.70;51.47
48778;BME280;34578;0.000;0.000;2023-03-23T15:35:33;96064.69;;;17.71;51.38
48778;BME280;34578;0.000;0.000;2023-03-23T15:40:38;96056.28;;;17.68;51.19
48778;BME280;34578;0.000;0.000;2023-03-23T15:45:39;96055.28;;;17.87;55.40
48778;BME280;34578;0.000;0.000;2023-03-23T15:50:40;96057.75;;;17.97;55.86
48778;BME280;34578;0.000;0.000;2023-03-23T15:55:41;96040.94;;;17.86;53.51
48778;BME280;34578;0.000;0.000;2023-03-23T16:00:42;96059.56;;;17.79;51.84
48778;BME280;34578;0.000;0.000;2023-03-23T16:05:44;96050.34;;;17.72;51.38
48778;BME280;34578;0.000;0.000;2023-03-23T16:10:49;96056.25;;;17.71;51.64
48778;BME280;34578;0.000;0.000;2023-03-23T16:15:49;96048.69;;;17.68;51.57
48778;BME280;34578;0.000;0.000;2023-03-23T16:20:50;96057.97;;;17.67;51.57
48778;BME280;34578;0.000;0.000;2023-03-23T16:25:51;96058.81;;;17.66;51.34
48778;BME280;34578;0.000;0.000;2023-03-23T16:30:51;96067.28;;;17.67;51.33
48778;BME280;34578;0.000;0.000;2023-03-23T16:35:52;96061.38;;;17.65;51.21
48778;BME280;34578;0.000;0.000;2023-03-23T16:40:52;96073.19;;;17.66;51.60
48778;BME280;34578;0.000;0.000;2023-03-23T16:45:55;96060.53;;;17.66;51.26
48778;BME280;34578;0.000;0.000;2023-03-23T16:50:55;96051.31;;;17.60;51.13
48778;BME280;34578;0.000;0.000;2023-03-23T16:55:56;96065.44;;;17.84;55.26
48778;BME280;34578;0.000;0.000;2023-03-23T17:00:59;96061.13;;;17.95;55.16
48778;BME280;34578;0.000;0.000;2023-03-23T17:06:02;96062.03;;;17.88;53.03
48778;BME280;34578;0.000;0.000;2023-03-23T17:11:03;96054.53;;;17.76;51.71
48778;BME280;34578;0.000;0.000;2023-03-23T17:16:04;96060.47;;;17.72;51.50
48778;BME280;34578;0.000;0.000;2023-03-23T17:21:05;96054.56;;;17.71;51.35
48778;BME280;34578;0.000;0.000;2023-03-23T17:26:06;96047.84;;;17.70;51.23
48778;BME280;34578;0.000;0.000;2023-03-23T17:31:06;96036.03;;;17.66;51.25
48778;BME280;34578;0.000;0.000;2023-03-23T17:36:07;96047.84;;;17.70;50.97
48778;BME280;34578;0.000;0.000;2023-03-23T17:41:07;96046.97;;;17.70;51.47
48778;BME280;34578;0.000;0.000;2023-03-23T17:46:10;96047.88;;;17.66;51.15
48778;BME280;34578;0.000;0.000;2023-03-23T17:51:10;96054.59;;;17.70;51.46
48778;BME280;34578;0.000;0.000;2023-03-23T17:56:11;96058.78;;;17.71;51.32
48778;BME280;34578;0.000;0.000;2023-03-23T18:01:11;96065.53;;;17.72;51.26
48778;BME280;34578;0.000;0.000;2023-03-23T18:06:12;96063.69;;;17.89;54.20
48778;BME280;34578;0.000;0.000;2023-03-23T18:11:12;96058.56;;;18.01;55.31
48778;BME280;34578;0.000;0.000;2023-03-23T18:16:13;96056.13;;;17.87;51.54
48778;BME280;34578;0.000;0.000;2023-03-23T18:21:13;96053.66;;;17.83;51.52
48778;BME280;34578;0.000;0.000;2023-03-23T18:26:14;96041.00;;;17.80;51.13
48778;BME280;34578;0.000;0.000;2023-03-23T18:31:16;96040.16;;;17.78;51.27
48778;BME280;34578;0.000;0.000;2023-03-23T18:36:19;96041.88;;;17.76;51.04
48778;BME280;34578;0.000;0.000;2023-03-23T18:41:20;96030.09;;;17.75;51.00
48778;BME280;34578;0.000;0.000;2023-03-23T18:46:21;96030.09;;;17.72;51.71
48778;BME280;34578;0.000;0.000;2023-03-23T18:51:21;96031.78;;;17.70;50.75
48778;BME280;34578;0.000;0.000;2023-03-23T18:56:21;96043.59;;;17.74;51.17
48778;BME280;34578;0.000;0.000;2023-03-23T19:01:22;96051.16;;;17.75;51.04
48778;BME280;34578;0.000;0.000;2023-03-23T19:06:25;96047.75;;;17.79;51.01
48778;BME280;34578;0.000;0.000;2023-03-23T19:11:26;96041.00;;;17.83;51.57
48778;BME280;34578;0.000;0.000;2023-03-23T19:16:28;96036.63;;;17.97;58.47
48778;BME280;34578;0.000;0.000;2023-03-23T19:21:30;96031.50;;;18.03;55.64
48778;BME280;34578;0.000;0.000;2023-03-23T19:26:33;96019.00;;;17.86;51.31
48778;BME280;34578;0.000;0.000;2023-03-23T19:31:33;96018.19;;;17.83;51.25
48778;BME280;34578;0.000;0.000;2023-03-23T19:36:35;96014.03;;;17.77;51.09
48778;BME280;34578;0.000;0.000;2023-03-23T19:41:36;96001.38;;;17.74;51.23
48778;BME280;34578;0.000;0.000;2023-03-23T19:46:36;95992.97;;;17.74;50.97
48778;BME280;34578;0.000;0.000;2023-03-23T19:51:36;95991.28;;;17.73;50.99
48778;BME280;34578;0.000;0.000;2023-03-23T19:56:37;95987.91;;;17.71;50.88
48778;BME280;34578;0.000;0.000;2023-03-23T20:01:38;95987.91;;;17.72;51.35
48778;BME280;34578;0.000;0.000;2023-03-23T20:06:38;95980.31;;;17.71;50.93
48778;BME280;34578;0.000;0.000;2023-03-23T20:11:39;95969.38;;;17.69;50.73
48778;BME280;34578;0.000;0.000;2023-03-23T20:16:42;95968.56;;;17.67;51.18
48778;BME280;34578;0.000;0.000;2023-03-23T20:21:42;95969.25;;;17.81;55.45
48778;BME280;34578;0.000;0.000;2023-03-23T20:26:44;95959.00;;;17.93;58.76
48778;BME280;34578;0.000;0.000;2023-03-23T20:31:44;95955.56;;;18.00;55.21
48778;BME280;34578;0.000;0.000;2023-03-23T20:36:49;95950.69;;;17.82;54.86
48778;BME280;34578;0.000;0.000;2023-03-23T20:41:53;95944.00;;;17.72;52.21
48778;BME280;34578;0.000;0.000;2023-03-23T20:46:56;95934.75;;;17.72;51.78
48778;BME280;34578;0.000;0.000;2023-03-23T20:51:56;95937.28;;;17.71;51.64
48778;BME280;34578;0.000;0.000;2023-03-23T20:56:57;95919.59;;;17.68;51.34
48778;BME280;34578;0.000;0.000;2023-03-23T21:01:58;95903.59;;;17.64;51.29
48778;BME280;34578;0.000;0.000;2023-03-23T21:06:58;95903.56;;;17.67;51.63
48778;BME280;34578;0.000;0.000;2023-03-23T21:12:00;95889.28;;;17.65;51.25
48778;BME280;34578;0.000;0.000;2023-03-23T21:17:06;95878.28;;;17.66;51.29
48778;BME280;34578;0.000;0.000;2023-03-23T21:22:06;95885.88;;;17.64;51.22
48778;BME280;34578;0.000;0.000;2023-03-23T21:27:08;95879.16;;;17.65;51.26
48778;BME280;34578;0.000;0.000;2023-03-23T21:32:09;95878.09;;;17.81;57.27
48778;BME280;34578;0.000;0.000;2023-03-23T21:37:09;95867.00;;;17.95;59.05
48778;BME280;34578;0.000;0.000;2023-03-23T21:42:11;95859.50;;;17.86;56.84
48778;BME280;34578;0.000;0.000;2023-03-23T21:47:14;95864.66;;;17.76;53.29
48778;BME280;34578;0.000;0.000;2023-03-23T21:52:15;95853.75;;;17.71;52.21
48778;BME280;34578;0.000;0.000;2023-03-23T21:57:15;95845.34;;;17.67;51.69
48778;BME280;34578;0.000;0.000;2023-03-23T22:02:16;95852.97;;;17.66;51.64
48778;BME280;34578;0.000;0.000;2023-03-23T22:07:16;95852.97;;;17.66;51.45
48778;BME280;34578;0.000;0.000;2023-03-23T22:12:17;95832.75;;;17.63;51.63
48778;BME280;34578;0.000;0.000;2023-03-23T22:17:17;95848.78;;;17.63;51.53
48778;BME280;34578;0.000;0.000;2023-03-23T22:22:18;95837.81;;;17.63;51.66
48778;BME280;34578;0.000;0.000;2023-03-23T22:27:19;95840.38;;;17.60;51.65
48778;BME280;34578;0.000;0.000;2023-03-23T22:32:21;95857.22;;;17.62;51.40
48778;BME280;34578;0.000;0.000;2023-03-23T22:37:22;95861.44;;;17.62;52.14
48778;BME280;34578;0.000;0.000;2023-03-23T22:42:22;95843.50;;;17.81;56.54
48778;BME280;34578;0.000;0.000;2023-03-23T22:47:23;95850.13;;;17.94;59.73
48778;BME280;34578;0.000;0.000;2023-03-23T22:52:23;95859.50;;;17.83;57.67
48778;BME280;34578;0.000;0.000;2023-03-23T22:57:23;95859.66;;;17.70;53.74
48778;BME280;34578;0.000;0.000;2023-03-23T23:02:24;95829.38;;;17.62;52.39
48778;BME280;34578;0.000;0.000;2023-03-23T23:07:25;95852.97;;;17.63;51.83
48778;BME280;34578;0.000;0.000;2023-03-23T23:12:28;95851.31;;;17.62;51.99
48778;BME280;34578;0.000;0.000;2023-03-23T23:17:29;95853.03;;;17.61;51.91
48778;BME280;34578;0.000;0.000;2023-03-23T23:22:31;95844.56;;;17.61;51.52
48778;BME280;34578;0.000;0.000;2023-03-23T23:27:32;95837.00;;;17.59;51.38
48778;BME280;34578;0.000;0.000;2023-03-23T23:32:32;95821.03;;;17.56;51.63
48778;BME280;34578;0.000;0.000;2023-03-23T23:37:33;95825.19;;;17.58;51.26
48778;BME280;34578;0.000;0.000;2023-03-23T23:42:34;95823.56;;;17.56;51.24
48778;BME280;34578;0.000;0.000;2023-03-23T23:47:36;95820.94;;;17.62;55.43
48778;BME280;34578;0.000;0.000;2023-03-23T23:52:38;95808.88;;;17.85;58.59
48778;BME280;34578;0.000;0.000;2023-03-23T23:57:39;95803.69;;;17.94;57.76
